Messwerte Arusha

Temperatur

Temperatur
°C
1593730800 2.00 2.00
1593734400 3.00 3.00 15
1593738000 4.00 4.00
1593741600 5.00 5.00 15
1593745200 6.00 6.00 15
1593748800 7.00 7.00 15
1593752400 8.00 8.00 15
1593756000 9.00 9.00 16
1593759600 10.00 10.00 18
1593763200 11.00 11.00 19
1593766800 12.00 12.00 19
1593770400 13.00 13.00 20
1593774000 14.00 14.00 22
1593777600 15.00 15.00 22
1593781200 16.00 16.00 22
1593784800 17.00 17.00 22
1593788400 18.00 18.00 22
1593792000 19.00 19.00
1593795600 20.00 20.00 17
1593799200 21.00 21.00
1593802800 22.00 22.00
1593806400 23.00 23.00 16
1593810000 0.00 0.00
1593813600 1.00 1.00 16

Aktuellste Messwerte

Wettercharakter
Wetter: meist klar
Temperatur
16 °C
Feuchtigkeit
80 %
Wind
10 km/hWindrichtung: Südost
Luftdruck
1022 hPa
Messzeit: 4. Juli 2020, 1.00Datenquelle: METAR

Weitere Messstationen in der Nähe

Messstation Temperatur Entfernung
Kilimanjaro Flughafen - 51 km
Nairobi 11 °C 224 km
Nairobi 10 °C 226 km
Dodoma - 329 km
Mombasa - 342 km
Musoma - 373 km
Morogoro - 405 km

Wind

Windrichtung Böen Mittelwind
° km/h km/h
1593730800 2.00 1.00 - 2.00
1593734400 3.00 2.00 - 3.00 110° 20
1593738000 4.00 3.00 - 4.00
1593741600 5.00 4.00 - 5.00 110° 15
1593745200 6.00 5.00 - 6.00 100° 15
1593748800 7.00 6.00 - 7.00 120° 15
1593752400 8.00 7.00 - 8.00 130° 15
1593756000 9.00 8.00 - 9.00 100° 15
1593759600 10.00 9.00 - 10.00 100° 20
1593763200 11.00 10.00 - 11.00 100° 15
1593766800 12.00 11.00 - 12.00 130° 15
1593770400 13.00 12.00 - 13.00 100° 10
1593774000 14.00 13.00 - 14.00 100° 15
1593777600 15.00 14.00 - 15.00 80° 10
1593781200 16.00 15.00 - 16.00 130° 10
1593784800 17.00 16.00 - 17.00 80° 10
1593788400 18.00 17.00 - 18.00 60° 10
1593792000 19.00 18.00 - 19.00
1593795600 20.00 19.00 - 20.00 70° 5
1593799200 21.00 20.00 - 21.00
1593802800 22.00 21.00 - 22.00
1593806400 23.00 22.00 - 23.00 100° 10
1593810000 0.00 23.00 - 0.00
1593813600 1.00 0.00 - 1.00 120° 10

Ihre Wetterstation

Fehlt Ihre Wetterstation auf unserem Portal?

Schreiben Sie an network@meteonews.ch

Klima

Wann ist es am wärmsten? Wann regnet es am wenigsten? Unsere Klimadaten geben Auskunft.